createdAt,value
2022-11-12T00:01:16.969Z,15.93
2022-11-12T00:06:38.812Z,20.38
2022-11-12T00:12:00.671Z,20.40
2022-11-12T00:17:22.518Z,16.33
2022-11-12T00:22:44.762Z,19.55
2022-11-12T00:28:09.753Z,21.02
2022-11-12T00:33:31.745Z,16.48
2022-11-12T00:38:53.576Z,16.25
2022-11-12T00:44:15.429Z,17.52
2022-11-12T00:49:37.347Z,17.45
2022-11-12T00:54:59.173Z,14.80
2022-11-12T01:00:21.165Z,18.67
2022-11-12T01:05:42.961Z,15.15
2022-11-12T01:11:07.086Z,15.13
2022-11-12T01:16:31.394Z,18.08
2022-11-12T01:21:53.209Z,15.95
2022-11-12T01:27:15.104Z,13.85
2022-11-12T01:32:37.122Z,15.27
2022-11-12T01:37:58.959Z,15.45
2022-11-12T01:43:20.765Z,13.75
2022-11-12T01:48:59.698Z,14.75
2022-11-12T01:54:22.589Z,15.05
2022-11-12T01:59:47.988Z,17.35
2022-11-12T02:05:11.244Z,14.35
2022-11-12T02:10:34.801Z,16.15
2022-11-12T02:15:56.611Z,16.08
2022-11-12T02:21:20.302Z,15.43
2022-11-12T02:26:46.055Z,16.25
2022-11-12T02:32:07.913Z,16.63
2022-11-12T02:37:29.709Z,15.30
2022-11-12T02:42:51.574Z,18.02
2022-11-12T02:48:18.953Z,15.43
2022-11-12T02:53:41.629Z,17.13
2022-11-12T02:59:03.596Z,13.63
2022-11-12T03:04:25.459Z,18.73
2022-11-12T03:09:47.912Z,15.05
2022-11-12T03:15:10.088Z,20.40
2022-11-12T03:20:31.922Z,15.38
2022-11-12T03:25:53.945Z,16.75
2022-11-12T03:31:15.792Z,16.70
2022-11-12T03:36:37.651Z,18.38
2022-11-12T03:41:59.500Z,19.33
2022-11-12T03:47:21.356Z,16.40
2022-11-12T03:52:47.597Z,17.95
2022-11-12T03:58:09.406Z,18.52
2022-11-12T04:03:31.232Z,18.02
2022-11-12T04:08:53.013Z,16.35
2022-11-12T04:14:14.797Z,19.58
2022-11-12T04:19:36.628Z,19.00
2022-11-12T04:24:58.444Z,20.42
2022-11-12T04:30:20.297Z,17.80
2022-11-12T04:35:42.116Z,19.02
2022-11-12T04:41:03.914Z,18.02
2022-11-12T04:46:25.718Z,16.15
2022-11-12T04:51:47.537Z,17.88
2022-11-12T04:57:09.640Z,18.70
2022-11-12T05:02:31.514Z,16.15
2022-11-12T05:07:53.321Z,17.80
2022-11-12T05:13:15.115Z,19.63
2022-11-12T05:18:36.893Z,20.40
2022-11-12T05:23:58.772Z,20.75
2022-11-12T05:29:20.619Z,19.05
2022-11-12T05:34:42.772Z,20.23
2022-11-12T05:40:05.118Z,19.40
2022-11-12T05:45:26.950Z,23.67
2022-11-12T05:51:11.928Z,25.20
2022-11-12T05:56:35.602Z,25.37
2022-11-12T06:01:57.407Z,29.60
2022-11-12T06:07:19.321Z,26.52
2022-11-12T06:12:41.436Z,29.98
2022-11-12T06:18:03.343Z,28.77
2022-11-12T06:23:25.125Z,27.45
2022-11-12T06:28:47.804Z,30.73
2022-11-12T06:34:09.642Z,29.75
2022-11-12T06:39:32.625Z,27.40
2022-11-12T06:44:54.466Z,25.92
2022-11-12T06:50:16.377Z,29.08
2022-11-12T06:55:38.181Z,22.45
2022-11-12T07:01:10.965Z,25.35
2022-11-12T07:06:34.387Z,28.95
2022-11-12T07:11:56.316Z,30.33
2022-11-12T07:17:18.224Z,27.08
2022-11-12T07:22:40.059Z,28.70
2022-11-12T07:28:01.878Z,29.90
2022-11-12T07:33:23.897Z,28.33
2022-11-12T07:38:46.228Z,28.90
2022-11-12T07:44:08.066Z,31.63
2022-11-12T07:49:29.983Z,30.20
2022-11-12T07:54:51.918Z,32.53
2022-11-12T08:00:14.547Z,29.10
2022-11-12T08:05:36.323Z,29.13
2022-11-12T08:10:59.622Z,33.75
2022-11-12T08:16:21.554Z,32.28
2022-11-12T08:21:43.379Z,32.55
2022-11-12T08:27:05.226Z,34.75
2022-11-12T08:32:27.413Z,36.35
2022-11-12T08:37:49.315Z,36.50
2022-11-12T08:43:11.522Z,33.08
2022-11-12T08:48:34.334Z,34.03
2022-11-12T08:53:56.173Z,35.20
2022-11-12T08:59:17.952Z,38.80
2022-11-12T09:04:39.761Z,44.08
2022-11-12T09:10:01.695Z,34.20
2022-11-12T09:15:40.213Z,35.50
2022-11-12T09:21:08.387Z,36.67
2022-11-12T09:26:30.168Z,35.33
2022-11-12T09:31:52.022Z,37.22
2022-11-12T09:37:13.927Z,39.13
2022-11-12T09:42:36.767Z,40.20
2022-11-12T09:48:05.940Z,37.22
2022-11-12T09:53:56.427Z,36.28
2022-11-12T09:59:19.302Z,38.15
2022-11-12T10:04:51.454Z,42.88
2022-11-12T10:10:19.067Z,35.58
2022-11-12T10:15:53.887Z,38.55
2022-11-12T10:21:24.444Z,36.63
2022-11-12T10:26:46.721Z,34.53
2022-11-12T10:32:15.121Z,31.95
2022-11-12T10:37:42.740Z,32.90
2022-11-12T10:43:25.582Z,30.80
2022-11-12T10:48:57.197Z,32.42
2022-11-12T10:54:27.775Z,27.88
2022-11-12T11:00:12.288Z,30.55
2022-11-12T11:05:35.575Z,32.40
2022-11-12T11:11:28.161Z,32.15
2022-11-12T11:16:53.154Z,30.30
2022-11-12T11:22:27.312Z,26.90
2022-11-12T11:28:15.028Z,27.98
2022-11-12T11:34:02.591Z,27.08
2022-11-12T11:39:44.612Z,28.13
2022-11-12T11:45:16.238Z,25.88
2022-11-12T11:50:54.705Z,25.15
2022-11-12T11:56:40.072Z,28.58
2022-11-12T12:02:17.630Z,27.85
2022-11-12T12:07:58.978Z,26.20
2022-11-12T12:14:00.710Z,28.25
2022-11-12T12:19:25.584Z,28.55
2022-11-12T12:24:54.856Z,24.55
2022-11-12T12:30:22.765Z,24.65
2022-11-12T12:35:54.960Z,23.85
2022-11-12T12:41:26.858Z,22.25
2022-11-12T12:46:54.892Z,24.23
2022-11-12T12:52:16.946Z,23.30
2022-11-12T12:57:39.827Z,20.92
2022-11-12T13:03:02.071Z,28.15
2022-11-12T13:08:26.181Z,21.88
2022-11-12T13:13:48.266Z,19.73
2022-11-12T13:19:10.114Z,20.02
2022-11-12T13:25:26.105Z,19.92
2022-11-12T13:30:47.839Z,19.23
2022-11-12T13:36:27.857Z,40.15
2022-11-12T13:41:59.377Z,16.55
2022-11-12T13:47:22.477Z,19.15
2022-11-12T13:52:46.087Z,18.33
2022-11-12T13:58:19.939Z,19.77
2022-11-12T14:03:48.603Z,19.30
2022-11-12T14:09:13.349Z,17.95
2022-11-12T14:15:12.504Z,19.77
2022-11-12T14:20:40.271Z,19.23
2022-11-12T14:26:02.111Z,19.27
2022-11-12T14:31:25.248Z,18.73
2022-11-12T14:36:47.717Z,22.88
2022-11-12T14:42:15.138Z,18.25
2022-11-12T14:47:36.987Z,16.95
2022-11-12T14:53:09.625Z,17.70
2022-11-12T14:58:33.254Z,19.77
2022-11-12T15:04:10.981Z,18.02
2022-11-12T15:09:35.241Z,20.30
2022-11-12T15:15:26.509Z,18.48
2022-11-12T15:21:27.909Z,18.15
2022-11-12T15:26:50.428Z,20.23
2022-11-12T15:32:14.018Z,21.27
2022-11-12T15:37:42.336Z,22.25
2022-11-12T15:43:14.411Z,23.65
2022-11-12T15:48:36.233Z,21.63
2022-11-12T15:53:58.001Z,19.27
2022-11-12T15:59:19.821Z,25.00
2022-11-12T16:04:41.613Z,24.75
2022-11-12T16:10:03.612Z,23.38
2022-11-12T16:15:25.655Z,23.90
2022-11-12T16:20:48.025Z,22.58
2022-11-12T16:26:14.681Z,21.52
2022-11-12T16:36:58.690Z,21.90
2022-11-12T16:42:20.504Z,26.55
2022-11-12T16:47:49.903Z,22.50
2022-11-12T16:53:12.045Z,25.20
2022-11-12T16:58:33.811Z,24.58
2022-11-12T17:03:56.834Z,24.20
2022-11-12T17:09:18.609Z,24.88
2022-11-12T17:14:40.388Z,25.95
2022-11-12T17:20:02.239Z,20.88
2022-11-12T17:25:24.012Z,22.77
2022-11-12T17:30:45.787Z,26.23
2022-11-12T17:36:09.917Z,20.52
2022-11-12T17:41:31.810Z,20.85
2022-11-12T17:46:53.670Z,30.20
2022-11-12T17:52:15.533Z,24.05
2022-11-12T17:57:37.460Z,24.60
2022-11-12T18:02:59.356Z,25.77
2022-11-12T18:08:21.178Z,24.25
2022-11-12T18:13:42.976Z,25.60
2022-11-12T18:19:05.093Z,22.83
2022-11-12T18:24:26.897Z,21.80
2022-11-12T18:29:48.665Z,22.88
2022-11-12T18:35:10.452Z,23.55
2022-11-12T18:40:32.254Z,25.45
2022-11-12T18:45:57.972Z,23.25
2022-11-12T18:51:20.202Z,23.50
2022-11-12T18:56:42.302Z,21.15
2022-11-12T19:02:04.183Z,25.63
2022-11-12T19:07:26.084Z,26.48
2022-11-12T19:12:47.862Z,26.50
2022-11-12T19:18:09.647Z,24.02
2022-11-12T19:23:31.727Z,24.75
2022-11-12T19:28:54.036Z,26.63
2022-11-12T19:34:15.846Z,24.67
2022-11-12T19:39:37.629Z,27.83
2022-11-12T19:44:59.472Z,29.70
2022-11-12T19:50:24.655Z,28.05
2022-11-12T19:55:46.784Z,28.55
2022-11-12T20:01:10.873Z,28.15
2022-11-12T20:06:32.688Z,29.85
2022-11-12T20:11:54.490Z,26.95
2022-11-12T20:17:16.277Z,29.35
2022-11-12T20:22:38.108Z,28.23
2022-11-12T20:27:59.927Z,30.05
2022-11-12T20:33:21.691Z,31.77
2022-11-12T20:38:44.590Z,33.60
2022-11-12T20:44:06.658Z,31.38
2022-11-12T20:49:28.573Z,34.20
2022-11-12T20:54:50.364Z,36.92
2022-11-12T21:00:14.720Z,37.50
2022-11-12T21:05:37.805Z,37.55
2022-11-12T21:11:02.298Z,42.03
2022-11-12T21:16:24.126Z,38.30
2022-11-12T21:21:46.128Z,41.80
2022-11-12T21:27:07.926Z,39.78
2022-11-12T21:32:29.716Z,44.97
2022-11-12T21:37:51.588Z,41.55
2022-11-12T21:43:13.429Z,48.30
2022-11-12T21:48:35.763Z,44.97
2022-11-12T21:54:00.531Z,47.97
2022-11-12T21:59:22.316Z,50.05
2022-11-12T22:04:44.146Z,48.90
2022-11-12T22:10:06.505Z,48.63
2022-11-12T22:15:28.297Z,48.55
2022-11-12T22:21:00.958Z,49.10
2022-11-12T22:26:25.525Z,44.97
2022-11-12T22:31:47.367Z,48.58
2022-11-12T22:37:09.137Z,46.08
2022-11-12T22:42:30.949Z,48.65
2022-11-12T22:47:52.839Z,50.20
2022-11-12T22:53:14.624Z,47.85
2022-11-12T22:58:37.578Z,45.70
2022-11-12T23:04:01.747Z,45.60
2022-11-12T23:09:23.525Z,47.50
2022-11-12T23:14:45.325Z,46.47
2022-11-12T23:20:07.749Z,47.95
2022-11-12T23:25:29.789Z,48.38
2022-11-12T23:30:51.615Z,47.88
2022-11-12T23:36:13.996Z,46.30
2022-11-12T23:41:35.989Z,45.03
2022-11-12T23:46:57.829Z,46.97
2022-11-12T23:52:19.604Z,47.95
2022-11-12T23:57:41.395Z,46.20
